This is the latest recevied weather packets stored in our database for station/object IW1CGW-13. If no packets are shown the sender has not sent any weather packets the latest 10 day(s).
| Time | Temp. | Humidity | Pressure | Rain* | Wind** | Luminosity | Snow |
|---|---|---|---|---|---|---|---|
| 1777457534 | 15° C | 76% | 1017.6 hPa | - | - | - | - |
| 1777455670 | 17.78° C | 73% | 1017.5 hPa | - | - | - | - |
| 1777455049 | 16.11° C | 76% | 1017.6 hPa | - | - | - | - |
| 1777454428 | 15° C | 77% | 1017.6 hPa | - | - | - | - |
| 1777453806 | 14.44° C | 76% | 1017.5 hPa | - | - | - | - |
| 1777453183 | 15° C | 76% | 1017.5 hPa | - | - | - | - |
| 1777452563 | 15.56° C | 74% | 1017.3 hPa | - | - | - | - |
| 1777451942 | 16.67° C | 75% | 1017.3 hPa | - | - | - | - |
| 1777451320 | 14.44° C | 78% | 1017.3 hPa | - | - | - | - |
| 1777450699 | 13.33° C | 77% | 1017.3 hPa | - | - | - | - |
| 1777450079 | 13.33° C | 77% | 1017.3 hPa | - | - | - | - |
| 1777448220 | 13.33° C | 76% | 1017.2 hPa | - | - | - | - |
| 1777447595 | 13.33° C | 76% | 1017.1 hPa | - | - | - | - |
| 1777446975 | 13.33° C | 76% | 1017 hPa | - | - | - | - |
| 1777446353 | 13.33° C | 76% | 1017 hPa | - | - | - | - |
| 1777445732 | 13.89° C | 77% | 1016.9 hPa | - | - | - | - |
| 1777445112 | 13.33° C | 77% | 1016.8 hPa | - | - | - | - |
| 1777444490 | 12.78° C | 77% | 1016.7 hPa | - | - | - | - |
| 1777443869 | 12.22° C | 77% | 1016.7 hPa | - | - | - | - |
| 1777443248 | 11.67° C | 77% | 1016.5 hPa | - | - | - | - |
| 1777442628 | 11.67° C | 77% | 1016.3 hPa | - | - | - | - |
| 1777442007 | 11.11° C | 77% | 1016.3 hPa | - | - | - | - |
| 1777441386 | 11.11° C | 77% | 1016.3 hPa | - | - | - | - |
| 1777440762 | 10.56° C | 77% | 1016.4 hPa | - | - | - | - |
| 1777440139 | 10.56° C | 77% | 1016.4 hPa | - | - | - | - |
* Rain since midnight (hover to see other rain measurements)
** Current wind speed in m/s (hover to see current wind gust speed)